sensor_id;sensor_type;location;lat;lon;timestamp;temperature;humidity
19968;DHT22;10145;49.152;9.282;2024-01-10T00:01:50;-5.20;99.90
19968;DHT22;10145;49.152;9.282;2024-01-10T00:04:16;-5.30;99.90
19968;DHT22;10145;49.152;9.282;2024-01-10T00:06:42;-5.20;99.90
19968;DHT22;10145;49.152;9.282;2024-01-10T00:09:08;-5.30;99.90
19968;DHT22;10145;49.152;9.282;2024-01-10T00:11:34;-5.30;99.90
19968;DHT22;10145;49.152;9.282;2024-01-10T00:13:59;-5.20;99.90
19968;DHT22;10145;49.152;9.282;2024-01-10T00:16:26;-5.20;99.90
19968;DHT22;10145;49.152;9.282;2024-01-10T00:18:52;-5.20;99.90
19968;DHT22;10145;49.152;9.282;2024-01-10T00:21:17;-5.10;99.90
19968;DHT22;10145;49.152;9.282;2024-01-10T00:23:43;-5.10;99.90
19968;DHT22;10145;49.152;9.282;2024-01-10T00:26:08;-5.00;99.90
19968;DHT22;10145;49.152;9.282;2024-01-10T00:28:34;-4.90;99.90
19968;DHT22;10145;49.152;9.282;2024-01-10T00:30:59;-4.90;99.90
19968;DHT22;10145;49.152;9.282;2024-01-10T00:33:25;-4.80;99.90
19968;DHT22;10145;49.152;9.282;2024-01-10T00:35:50;-4.70;99.90
19968;DHT22;10145;49.152;9.282;2024-01-10T00:38:16;-4.60;99.90
19968;DHT22;10145;49.152;9.282;2024-01-10T00:40:42;-4.60;99.90
19968;DHT22;10145;49.152;9.282;2024-01-10T00:43:07;-4.50;99.90
19968;DHT22;10145;49.152;9.282;2024-01-10T00:45:33;-4.50;99.90
19968;DHT22;10145;49.152;9.282;2024-01-10T00:47:59;-4.40;99.90
19968;DHT22;10145;49.152;9.282;2024-01-10T00:50:24;-4.40;99.90
19968;DHT22;10145;49.152;9.282;2024-01-10T00:52:50;-4.40;99.90
19968;DHT22;10145;49.152;9.282;2024-01-10T00:55:15;-4.30;99.90
19968;DHT22;10145;49.152;9.282;2024-01-10T00:57:41;-4.30;99.90
19968;DHT22;10145;49.152;9.282;2024-01-10T01:00:08;-4.30;99.90
19968;DHT22;10145;49.152;9.282;2024-01-10T01:02:35;-4.30;99.90
19968;DHT22;10145;49.152;9.282;2024-01-10T01:05:02;-4.30;99.90
19968;DHT22;10145;49.152;9.282;2024-01-10T01:07:27;-4.30;99.90
19968;DHT22;10145;49.152;9.282;2024-01-10T01:09:53;-4.30;99.90
19968;DHT22;10145;49.152;9.282;2024-01-10T01:12:18;-4.30;99.90
19968;DHT22;10145;49.152;9.282;2024-01-10T01:14:44;-4.20;99.90
19968;DHT22;10145;49.152;9.282;2024-01-10T01:17:10;-4.30;99.90
19968;DHT22;10145;49.152;9.282;2024-01-10T01:19:35;-4.30;99.90
19968;DHT22;10145;49.152;9.282;2024-01-10T01:22:01;-4.20;99.90
19968;DHT22;10145;49.152;9.282;2024-01-10T01:24:26;-4.20;99.90
19968;DHT22;10145;49.152;9.282;2024-01-10T01:26:52;-4.10;99.90
19968;DHT22;10145;49.152;9.282;2024-01-10T01:29:18;-4.20;99.90
19968;DHT22;10145;49.152;9.282;2024-01-10T01:31:44;-4.20;99.90
19968;DHT22;10145;49.152;9.282;2024-01-10T01:34:09;-4.20;99.90
19968;DHT22;10145;49.152;9.282;2024-01-10T01:36:35;-4.20;99.90
19968;DHT22;10145;49.152;9.282;2024-01-10T01:39:01;-4.20;99.90
19968;DHT22;10145;49.152;9.282;2024-01-10T01:41:26;-4.20;99.90
19968;DHT22;10145;49.152;9.282;2024-01-10T01:43:52;-4.10;99.90
19968;DHT22;10145;49.152;9.282;2024-01-10T01:46:17;-4.10;99.90
19968;DHT22;10145;49.152;9.282;2024-01-10T01:48:43;-4.10;99.90
19968;DHT22;10145;49.152;9.282;2024-01-10T01:51:09;-4.10;99.90
19968;DHT22;10145;49.152;9.282;2024-01-10T01:53:37;-4.00;99.90
19968;DHT22;10145;49.152;9.282;2024-01-10T01:56:06;-4.00;99.90
19968;DHT22;10145;49.152;9.282;2024-01-10T01:58:32;-3.80;99.90
19968;DHT22;10145;49.152;9.282;2024-01-10T02:00:59;-3.90;99.90
19968;DHT22;10145;49.152;9.282;2024-01-10T02:03:25;-3.90;99.90
19968;DHT22;10145;49.152;9.282;2024-01-10T02:05:52;-3.90;99.90
19968;DHT22;10145;49.152;9.282;2024-01-10T02:08:17;-3.90;99.90
19968;DHT22;10145;49.152;9.282;2024-01-10T02:10:43;-3.90;99.90
19968;DHT22;10145;49.152;9.282;2024-01-10T02:13:08;-3.90;99.90
19968;DHT22;10145;49.152;9.282;2024-01-10T02:15:37;-3.90;99.90
19968;DHT22;10145;49.152;9.282;2024-01-10T02:18:03;-3.90;99.90
19968;DHT22;10145;49.152;9.282;2024-01-10T02:20:28;-3.90;99.90
19968;DHT22;10145;49.152;9.282;2024-01-10T02:22:54;-3.90;99.90
19968;DHT22;10145;49.152;9.282;2024-01-10T02:25:19;-3.90;99.90
19968;DHT22;10145;49.152;9.282;2024-01-10T02:27:46;-3.90;99.90
19968;DHT22;10145;49.152;9.282;2024-01-10T02:30:12;-4.00;99.90
19968;DHT22;10145;49.152;9.282;2024-01-10T02:32:38;-3.90;99.90
19968;DHT22;10145;49.152;9.282;2024-01-10T02:35:04;-3.90;99.90
19968;DHT22;10145;49.152;9.282;2024-01-10T02:37:29;-3.80;99.90
19968;DHT22;10145;49.152;9.282;2024-01-10T02:39:55;-3.80;99.90
19968;DHT22;10145;49.152;9.282;2024-01-10T02:42:21;-3.80;99.90
19968;DHT22;10145;49.152;9.282;2024-01-10T02:44:46;-3.80;99.90
19968;DHT22;10145;49.152;9.282;2024-01-10T02:47:12;-3.80;99.90
19968;DHT22;10145;49.152;9.282;2024-01-10T02:49:38;-3.80;99.90
19968;DHT22;10145;49.152;9.282;2024-01-10T02:52:04;-3.70;99.90
19968;DHT22;10145;49.152;9.282;2024-01-10T02:54:30;-3.70;99.90
19968;DHT22;10145;49.152;9.282;2024-01-10T02:56:55;-3.60;99.90
19968;DHT22;10145;49.152;9.282;2024-01-10T02:59:21;-3.60;99.90
19968;DHT22;10145;49.152;9.282;2024-01-10T03:01:47;-3.60;99.90
19968;DHT22;10145;49.152;9.282;2024-01-10T03:04:12;-3.60;99.90
19968;DHT22;10145;49.152;9.282;2024-01-10T03:06:38;-3.60;99.90
19968;DHT22;10145;49.152;9.282;2024-01-10T03:09:03;-3.60;99.90
19968;DHT22;10145;49.152;9.282;2024-01-10T03:11:29;-3.70;99.90
19968;DHT22;10145;49.152;9.282;2024-01-10T03:14:07;-3.70;99.90
19968;DHT22;10145;49.152;9.282;2024-01-10T03:16:33;-3.70;99.90
19968;DHT22;10145;49.152;9.282;2024-01-10T03:18:58;-3.70;99.90
19968;DHT22;10145;49.152;9.282;2024-01-10T03:21:24;-3.70;99.90
19968;DHT22;10145;49.152;9.282;2024-01-10T03:23:59;-3.70;99.90
19968;DHT22;10145;49.152;9.282;2024-01-10T03:26:25;-3.70;99.90
19968;DHT22;10145;49.152;9.282;2024-01-10T03:28:51;-3.80;99.90
19968;DHT22;10145;49.152;9.282;2024-01-10T03:31:17;-3.80;99.90
19968;DHT22;10145;49.152;9.282;2024-01-10T03:33:43;-3.90;99.90
19968;DHT22;10145;49.152;9.282;2024-01-10T03:36:12;-3.80;99.90
19968;DHT22;10145;49.152;9.282;2024-01-10T03:38:39;-3.90;99.90
19968;DHT22;10145;49.152;9.282;2024-01-10T03:41:05;-4.00;99.90
19968;DHT22;10145;49.152;9.282;2024-01-10T03:43:30;-4.10;99.90
19968;DHT22;10145;49.152;9.282;2024-01-10T03:45:57;-4.00;99.90
19968;DHT22;10145;49.152;9.282;2024-01-10T03:48:22;-4.00;99.90
19968;DHT22;10145;49.152;9.282;2024-01-10T03:50:48;-4.00;99.90
19968;DHT22;10145;49.152;9.282;2024-01-10T03:53:14;-4.00;99.90
19968;DHT22;10145;49.152;9.282;2024-01-10T03:55:39;-4.00;99.90
19968;DHT22;10145;49.152;9.282;2024-01-10T03:58:05;-4.10;99.90
19968;DHT22;10145;49.152;9.282;2024-01-10T04:00:31;-4.10;99.90
19968;DHT22;10145;49.152;9.282;2024-01-10T04:02:56;-4.20;99.90
19968;DHT22;10145;49.152;9.282;2024-01-10T04:05:22;-4.30;99.90
19968;DHT22;10145;49.152;9.282;2024-01-10T04:07:50;-4.30;99.90
19968;DHT22;10145;49.152;9.282;2024-01-10T04:10:16;-4.40;99.90
19968;DHT22;10145;49.152;9.282;2024-01-10T04:12:42;-4.40;99.90
19968;DHT22;10145;49.152;9.282;2024-01-10T04:15:08;-4.50;99.90
19968;DHT22;10145;49.152;9.282;2024-01-10T04:17:33;-4.50;99.90
19968;DHT22;10145;49.152;9.282;2024-01-10T04:19:59;-4.50;99.90
19968;DHT22;10145;49.152;9.282;2024-01-10T04:22:25;-4.60;99.90
19968;DHT22;10145;49.152;9.282;2024-01-10T04:24:50;-4.60;99.90
19968;DHT22;10145;49.152;9.282;2024-01-10T04:27:16;-4.60;99.90
19968;DHT22;10145;49.152;9.282;2024-01-10T04:29:43;-4.60;99.90
19968;DHT22;10145;49.152;9.282;2024-01-10T04:32:09;-4.50;99.90
19968;DHT22;10145;49.152;9.282;2024-01-10T04:34:35;-4.60;99.90
19968;DHT22;10145;49.152;9.282;2024-01-10T04:37:01;-4.50;99.90
19968;DHT22;10145;49.152;9.282;2024-01-10T04:39:26;-4.50;99.90
19968;DHT22;10145;49.152;9.282;2024-01-10T04:41:52;-4.50;99.90
19968;DHT22;10145;49.152;9.282;2024-01-10T04:44:17;-4.40;99.90
19968;DHT22;10145;49.152;9.282;2024-01-10T04:46:43;-4.40;99.90
19968;DHT22;10145;49.152;9.282;2024-01-10T04:49:08;-4.40;99.90
19968;DHT22;10145;49.152;9.282;2024-01-10T04:51:35;-4.30;99.90
19968;DHT22;10145;49.152;9.282;2024-01-10T04:54:00;-4.30;99.90
19968;DHT22;10145;49.152;9.282;2024-01-10T04:56:26;-4.30;99.90
19968;DHT22;10145;49.152;9.282;2024-01-10T04:58:51;-4.20;99.90
19968;DHT22;10145;49.152;9.282;2024-01-10T05:01:17;-4.10;99.90
19968;DHT22;10145;49.152;9.282;2024-01-10T05:03:43;-4.10;99.90
19968;DHT22;10145;49.152;9.282;2024-01-10T05:06:09;-4.00;99.90
19968;DHT22;10145;49.152;9.282;2024-01-10T05:08:34;-3.90;99.90
19968;DHT22;10145;49.152;9.282;2024-01-10T05:11:00;-3.90;99.90
19968;DHT22;10145;49.152;9.282;2024-01-10T05:13:25;-3.80;99.90
19968;DHT22;10145;49.152;9.282;2024-01-10T05:15:51;-3.80;99.90
19968;DHT22;10145;49.152;9.282;2024-01-10T05:18:17;-3.70;99.90
19968;DHT22;10145;49.152;9.282;2024-01-10T05:20:44;-3.70;99.90
19968;DHT22;10145;49.152;9.282;2024-01-10T05:23:09;-3.60;99.90
19968;DHT22;10145;49.152;9.282;2024-01-10T05:25:35;-3.60;99.90
19968;DHT22;10145;49.152;9.282;2024-01-10T05:28:01;-3.50;99.90
19968;DHT22;10145;49.152;9.282;2024-01-10T05:30:27;-3.50;99.90
19968;DHT22;10145;49.152;9.282;2024-01-10T05:32:52;-3.40;99.90
19968;DHT22;10145;49.152;9.282;2024-01-10T05:35:18;-3.40;99.90
19968;DHT22;10145;49.152;9.282;2024-01-10T05:37:43;-3.30;99.90
19968;DHT22;10145;49.152;9.282;2024-01-10T05:40:09;-3.30;99.90
19968;DHT22;10145;49.152;9.282;2024-01-10T05:42:35;-3.30;99.90
19968;DHT22;10145;49.152;9.282;2024-01-10T05:45:01;-3.30;99.90
19968;DHT22;10145;49.152;9.282;2024-01-10T05:47:27;-3.30;99.90
19968;DHT22;10145;49.152;9.282;2024-01-10T05:49:53;-3.30;99.90
19968;DHT22;10145;49.152;9.282;2024-01-10T05:52:19;-3.20;99.90
19968;DHT22;10145;49.152;9.282;2024-01-10T05:54:45;-3.20;99.90
19968;DHT22;10145;49.152;9.282;2024-01-10T05:57:11;-3.20;99.90
19968;DHT22;10145;49.152;9.282;2024-01-10T05:59:36;-3.20;99.90
19968;DHT22;10145;49.152;9.282;2024-01-10T06:02:03;-3.20;99.90
19968;DHT22;10145;49.152;9.282;2024-01-10T06:04:28;-3.20;99.90
19968;DHT22;10145;49.152;9.282;2024-01-10T06:07:00;-3.20;99.90
19968;DHT22;10145;49.152;9.282;2024-01-10T06:09:26;-3.20;99.90
19968;DHT22;10145;49.152;9.282;2024-01-10T06:11:51;-3.20;99.90
19968;DHT22;10145;49.152;9.282;2024-01-10T06:14:17;-3.20;99.90
19968;DHT22;10145;49.152;9.282;2024-01-10T06:16:44;-3.10;99.90
19968;DHT22;10145;49.152;9.282;2024-01-10T06:19:10;-3.10;99.90
19968;DHT22;10145;49.152;9.282;2024-01-10T06:21:36;-3.10;99.90
19968;DHT22;10145;49.152;9.282;2024-01-10T06:24:02;-3.10;99.90
19968;DHT22;10145;49.152;9.282;2024-01-10T06:26:28;-3.10;99.90
19968;DHT22;10145;49.152;9.282;2024-01-10T06:28:53;-3.10;99.90
19968;DHT22;10145;49.152;9.282;2024-01-10T06:31:19;-3.10;99.90
19968;DHT22;10145;49.152;9.282;2024-01-10T06:33:45;-3.10;99.90
19968;DHT22;10145;49.152;9.282;2024-01-10T06:36:11;-3.10;99.90
19968;DHT22;10145;49.152;9.282;2024-01-10T06:38:38;-3.10;99.90
19968;DHT22;10145;49.152;9.282;2024-01-10T06:41:10;-3.20;99.90
19968;DHT22;10145;49.152;9.282;2024-01-10T06:43:39;-3.20;99.90
19968;DHT22;10145;49.152;9.282;2024-01-10T06:46:06;-3.10;99.90
19968;DHT22;10145;49.152;9.282;2024-01-10T06:48:32;-3.10;99.90
19968;DHT22;10145;49.152;9.282;2024-01-10T06:50:58;-3.10;99.90
19968;DHT22;10145;49.152;9.282;2024-01-10T06:53:24;-3.10;99.90
19968;DHT22;10145;49.152;9.282;2024-01-10T06:55:49;-3.10;99.90
19968;DHT22;10145;49.152;9.282;2024-01-10T06:58:15;-3.10;99.90
19968;DHT22;10145;49.152;9.282;2024-01-10T07:00:41;-3.00;99.90
19968;DHT22;10145;49.152;9.282;2024-01-10T07:03:07;-3.10;99.90
19968;DHT22;10145;49.152;9.282;2024-01-10T07:05:33;-3.10;99.90
19968;DHT22;10145;49.152;9.282;2024-01-10T07:07:59;-3.10;99.90
19968;DHT22;10145;49.152;9.282;2024-01-10T07:10:25;-3.10;99.90
19968;DHT22;10145;49.152;9.282;2024-01-10T07:12:53;-3.10;99.90
19968;DHT22;10145;49.152;9.282;2024-01-10T07:15:19;-3.10;99.90
19968;DHT22;10145;49.152;9.282;2024-01-10T07:17:45;-3.00;99.90
19968;DHT22;10145;49.152;9.282;2024-01-10T07:20:11;-3.10;99.90
19968;DHT22;10145;49.152;9.282;2024-01-10T07:22:38;-3.00;99.90
19968;DHT22;10145;49.152;9.282;2024-01-10T07:25:07;-3.00;99.90
19968;DHT22;10145;49.152;9.282;2024-01-10T07:27:34;-2.90;99.90
19968;DHT22;10145;49.152;9.282;2024-01-10T07:29:59;-2.80;99.90
19968;DHT22;10145;49.152;9.282;2024-01-10T07:32:25;-2.80;99.90
19968;DHT22;10145;49.152;9.282;2024-01-10T07:34:50;-2.70;99.90
19968;DHT22;10145;49.152;9.282;2024-01-10T07:37:16;-2.70;99.90
19968;DHT22;10145;49.152;9.282;2024-01-10T07:39:46;-2.60;99.90
19968;DHT22;10145;49.152;9.282;2024-01-10T07:42:12;-2.60;99.90
19968;DHT22;10145;49.152;9.282;2024-01-10T07:44:37;-2.60;99.90
19968;DHT22;10145;49.152;9.282;2024-01-10T07:47:03;-2.60;99.90
19968;DHT22;10145;49.152;9.282;2024-01-10T07:49:28;-2.60;99.90
19968;DHT22;10145;49.152;9.282;2024-01-10T07:51:55;-2.60;99.90
19968;DHT22;10145;49.152;9.282;2024-01-10T07:54:21;-2.50;99.90
19968;DHT22;10145;49.152;9.282;2024-01-10T07:56:46;-2.50;99.90
19968;DHT22;10145;49.152;9.282;2024-01-10T07:59:12;-2.40;99.90
19968;DHT22;10145;49.152;9.282;2024-01-10T08:01:43;-2.40;99.90
19968;DHT22;10145;49.152;9.282;2024-01-10T08:04:10;-2.30;99.90
19968;DHT22;10145;49.152;9.282;2024-01-10T08:06:36;-2.30;99.90
19968;DHT22;10145;49.152;9.282;2024-01-10T08:09:01;-2.30;99.90
19968;DHT22;10145;49.152;9.282;2024-01-10T08:11:29;-2.20;99.90
19968;DHT22;10145;49.152;9.282;2024-01-10T08:13:55;-2.10;99.90
19968;DHT22;10145;49.152;9.282;2024-01-10T08:16:20;-2.00;99.90
19968;DHT22;10145;49.152;9.282;2024-01-10T08:18:46;-2.00;99.90
19968;DHT22;10145;49.152;9.282;2024-01-10T08:21:12;-1.90;99.90
19968;DHT22;10145;49.152;9.282;2024-01-10T08:23:37;-1.80;99.90
19968;DHT22;10145;49.152;9.282;2024-01-10T08:26:06;-1.60;99.90
19968;DHT22;10145;49.152;9.282;2024-01-10T08:28:33;-1.50;99.90
19968;DHT22;10145;49.152;9.282;2024-01-10T08:30:59;-1.40;99.90
19968;DHT22;10145;49.152;9.282;2024-01-10T08:33:24;-1.40;99.90
19968;DHT22;10145;49.152;9.282;2024-01-10T08:35:50;-1.30;99.90
19968;DHT22;10145;49.152;9.282;2024-01-10T08:38:16;-1.30;99.90
19968;DHT22;10145;49.152;9.282;2024-01-10T08:40:41;-1.30;99.90
19968;DHT22;10145;49.152;9.282;2024-01-10T08:43:07;-1.20;99.90
19968;DHT22;10145;49.152;9.282;2024-01-10T08:45:33;-1.10;99.90
19968;DHT22;10145;49.152;9.282;2024-01-10T08:47:58;-1.10;99.90
19968;DHT22;10145;49.152;9.282;2024-01-10T08:50:24;-1.10;99.90
19968;DHT22;10145;49.152;9.282;2024-01-10T08:52:50;-1.10;99.90
19968;DHT22;10145;49.152;9.282;2024-01-10T08:55:16;-1.10;99.90
19968;DHT22;10145;49.152;9.282;2024-01-10T08:57:41;-1.10;99.90
19968;DHT22;10145;49.152;9.282;2024-01-10T09:00:07;-1.20;99.90
19968;DHT22;10145;49.152;9.282;2024-01-10T09:02:37;-1.30;99.90
19968;DHT22;10145;49.152;9.282;2024-01-10T09:05:03;-1.40;99.90
19968;DHT22;10145;49.152;9.282;2024-01-10T09:07:29;-1.40;99.90
19968;DHT22;10145;49.152;9.282;2024-01-10T09:09:55;-1.40;99.90
19968;DHT22;10145;49.152;9.282;2024-01-10T09:12:21;-1.40;99.90
19968;DHT22;10145;49.152;9.282;2024-01-10T09:14:46;-1.20;99.90
19968;DHT22;10145;49.152;9.282;2024-01-10T09:17:12;-1.20;99.90
19968;DHT22;10145;49.152;9.282;2024-01-10T09:19:38;-1.00;99.90
19968;DHT22;10145;49.152;9.282;2024-01-10T09:22:03;-0.90;99.90
19968;DHT22;10145;49.152;9.282;2024-01-10T09:24:29;-0.70;99.90
19968;DHT22;10145;49.152;9.282;2024-01-10T09:26:55;-0.60;99.90
19968;DHT22;10145;49.152;9.282;2024-01-10T09:29:21;-0.40;99.90
19968;DHT22;10145;49.152;9.282;2024-01-10T09:31:47;-0.30;99.90
19968;DHT22;10145;49.152;9.282;2024-01-10T09:34:12;-0.30;99.90
19968;DHT22;10145;49.152;9.282;2024-01-10T09:36:38;-0.20;99.90
19968;DHT22;10145;49.152;9.282;2024-01-10T09:39:03;-0.20;99.90
19968;DHT22;10145;49.152;9.282;2024-01-10T09:41:32;-0.20;99.90
19968;DHT22;10145;49.152;9.282;2024-01-10T09:44:00;-0.20;99.90
19968;DHT22;10145;49.152;9.282;2024-01-10T09:46:26;-0.10;99.90
19968;DHT22;10145;49.152;9.282;2024-01-10T09:48:55;0.00;99.90
19968;DHT22;10145;49.152;9.282;2024-01-10T09:51:21;-0.10;99.90
19968;DHT22;10145;49.152;9.282;2024-01-10T09:53:48;-0.20;99.90
19968;DHT22;10145;49.152;9.282;2024-01-10T09:56:16;-0.20;99.90
19968;DHT22;10145;49.152;9.282;2024-01-10T09:58:48;-0.30;99.90
19968;DHT22;10145;49.152;9.282;2024-01-10T10:01:15;-0.40;99.90
19968;DHT22;10145;49.152;9.282;2024-01-10T10:03:42;-0.40;99.90
19968;DHT22;10145;49.152;9.282;2024-01-10T10:06:11;-0.50;99.90
19968;DHT22;10145;49.152;9.282;2024-01-10T10:08:36;-0.50;99.90
19968;DHT22;10145;49.152;9.282;2024-01-10T10:11:03;-0.60;99.90
19968;DHT22;10145;49.152;9.282;2024-01-10T10:13:29;-0.60;99.90
19968;DHT22;10145;49.152;9.282;2024-01-10T10:16:02;-0.60;99.90
19968;DHT22;10145;49.152;9.282;2024-01-10T10:18:29;-0.70;99.90
19968;DHT22;10145;49.152;9.282;2024-01-10T10:21:11;-0.80;99.90
19968;DHT22;10145;49.152;9.282;2024-01-10T10:23:38;-0.80;99.90
19968;DHT22;10145;49.152;9.282;2024-01-10T10:26:17;-0.80;99.90
19968;DHT22;10145;49.152;9.282;2024-01-10T10:28:47;-0.90;99.90
19968;DHT22;10145;49.152;9.282;2024-01-10T10:31:13;-0.90;99.90
19968;DHT22;10145;49.152;9.282;2024-01-10T10:33:39;-0.90;99.90
19968;DHT22;10145;49.152;9.282;2024-01-10T10:36:06;-0.90;99.90
19968;DHT22;10145;49.152;9.282;2024-01-10T10:38:31;-0.80;99.90
19968;DHT22;10145;49.152;9.282;2024-01-10T10:40:58;-0.80;99.90
19968;DHT22;10145;49.152;9.282;2024-01-10T10:43:25;-0.80;99.90
19968;DHT22;10145;49.152;9.282;2024-01-10T10:45:51;-0.70;99.90
19968;DHT22;10145;49.152;9.282;2024-01-10T10:48:20;-0.70;99.90
19968;DHT22;10145;49.152;9.282;2024-01-10T10:53:37;-0.60;99.90
19968;DHT22;10145;49.152;9.282;2024-01-10T10:56:04;-0.60;99.90
19968;DHT22;10145;49.152;9.282;2024-01-10T10:58:35;-0.50;99.90
19968;DHT22;10145;49.152;9.282;2024-01-10T11:01:07;-0.50;99.90
19968;DHT22;10145;49.152;9.282;2024-01-10T11:03:37;-0.50;99.90
19968;DHT22;10145;49.152;9.282;2024-01-10T11:06:04;-0.50;99.90
19968;DHT22;10145;49.152;9.282;2024-01-10T11:08:37;-0.50;99.90
19968;DHT22;10145;49.152;9.282;2024-01-10T11:11:06;-0.50;99.90
19968;DHT22;10145;49.152;9.282;2024-01-10T11:14:01;-0.50;99.90
19968;DHT22;10145;49.152;9.282;2024-01-10T11:19:53;-0.50;99.90
19968;DHT22;10145;49.152;9.282;2024-01-10T11:25:04;-0.30;99.90
19968;DHT22;10145;49.152;9.282;2024-01-10T11:27:30;-0.30;99.90
19968;DHT22;10145;49.152;9.282;2024-01-10T11:29:56;-0.20;99.90
19968;DHT22;10145;49.152;9.282;2024-01-10T11:32:24;-0.20;99.90
19968;DHT22;10145;49.152;9.282;2024-01-10T11:34:59;-0.10;99.90
19968;DHT22;10145;49.152;9.282;2024-01-10T11:37:38;0.00;99.90
19968;DHT22;10145;49.152;9.282;2024-01-10T11:40:08;0.00;99.90
19968;DHT22;10145;49.152;9.282;2024-01-10T11:42:46;0.10;99.90
19968;DHT22;10145;49.152;9.282;2024-01-10T11:47:57;0.20;99.90
19968;DHT22;10145;49.152;9.282;2024-01-10T11:50:23;0.40;99.90
19968;DHT22;10145;49.152;9.282;2024-01-10T11:52:53;0.40;99.90
19968;DHT22;10145;49.152;9.282;2024-01-10T11:55:47;0.50;99.90
19968;DHT22;10145;49.152;9.282;2024-01-10T11:58:13;0.60;99.90
19968;DHT22;10145;49.152;9.282;2024-01-10T12:00:40;0.60;99.90
19968;DHT22;10145;49.152;9.282;2024-01-10T12:03:07;0.60;99.90
19968;DHT22;10145;49.152;9.282;2024-01-10T12:05:34;0.60;99.90
19968;DHT22;10145;49.152;9.282;2024-01-10T12:08:00;0.60;99.90
19968;DHT22;10145;49.152;9.282;2024-01-10T12:10:26;0.60;99.90
19968;DHT22;10145;49.152;9.282;2024-01-10T12:12:52;0.60;99.90
19968;DHT22;10145;49.152;9.282;2024-01-10T12:15:20;0.60;99.90
19968;DHT22;10145;49.152;9.282;2024-01-10T12:17:46;0.70;99.90
19968;DHT22;10145;49.152;9.282;2024-01-10T12:20:11;0.70;99.90
19968;DHT22;10145;49.152;9.282;2024-01-10T12:22:37;0.80;99.90
19968;DHT22;10145;49.152;9.282;2024-01-10T12:25:06;0.80;99.90
19968;DHT22;10145;49.152;9.282;2024-01-10T12:27:32;0.90;99.90
19968;DHT22;10145;49.152;9.282;2024-01-10T12:30:00;0.80;99.90
19968;DHT22;10145;49.152;9.282;2024-01-10T12:32:28;0.80;99.90
19968;DHT22;10145;49.152;9.282;2024-01-10T12:35:04;0.90;99.90
19968;DHT22;10145;49.152;9.282;2024-01-10T12:37:31;0.90;99.90
19968;DHT22;10145;49.152;9.282;2024-01-10T12:39:57;1.00;99.90
19968;DHT22;10145;49.152;9.282;2024-01-10T12:42:22;0.90;99.90
19968;DHT22;10145;49.152;9.282;2024-01-10T12:44:49;1.00;99.90
19968;DHT22;10145;49.152;9.282;2024-01-10T12:47:22;1.00;99.90
19968;DHT22;10145;49.152;9.282;2024-01-10T12:49:49;1.10;99.90
19968;DHT22;10145;49.152;9.282;2024-01-10T12:52:14;1.10;99.90
19968;DHT22;10145;49.152;9.282;2024-01-10T12:54:40;1.10;99.90
19968;DHT22;10145;49.152;9.282;2024-01-10T12:57:06;1.10;99.90
19968;DHT22;10145;49.152;9.282;2024-01-10T12:59:34;1.20;99.90
19968;DHT22;10145;49.152;9.282;2024-01-10T13:02:00;1.30;99.90
19968;DHT22;10145;49.152;9.282;2024-01-10T13:04:25;1.30;99.90
19968;DHT22;10145;49.152;9.282;2024-01-10T13:06:52;1.30;99.90
19968;DHT22;10145;49.152;9.282;2024-01-10T13:09:18;1.30;99.90
19968;DHT22;10145;49.152;9.282;2024-01-10T13:11:43;1.20;99.90
19968;DHT22;10145;49.152;9.282;2024-01-10T13:14:11;1.10;99.90
19968;DHT22;10145;49.152;9.282;2024-01-10T13:16:36;1.10;99.90
19968;DHT22;10145;49.152;9.282;2024-01-10T13:19:02;1.20;99.90
19968;DHT22;10145;49.152;9.282;2024-01-10T13:21:28;1.20;99.90
19968;DHT22;10145;49.152;9.282;2024-01-10T13:23:53;1.20;99.90
19968;DHT22;10145;49.152;9.282;2024-01-10T13:26:19;1.20;99.90
19968;DHT22;10145;49.152;9.282;2024-01-10T13:28:44;1.20;99.90
19968;DHT22;10145;49.152;9.282;2024-01-10T13:31:10;1.20;99.90
19968;DHT22;10145;49.152;9.282;2024-01-10T13:33:36;1.20;99.90
19968;DHT22;10145;49.152;9.282;2024-01-10T13:36:03;1.20;99.90
19968;DHT22;10145;49.152;9.282;2024-01-10T13:38:30;1.20;99.90
19968;DHT22;10145;49.152;9.282;2024-01-10T13:40:55;1.20;99.90
19968;DHT22;10145;49.152;9.282;2024-01-10T13:43:21;1.20;99.90
19968;DHT22;10145;49.152;9.282;2024-01-10T13:45:46;1.20;99.90
19968;DHT22;10145;49.152;9.282;2024-01-10T13:48:12;1.20;99.90
19968;DHT22;10145;49.152;9.282;2024-01-10T13:50:37;1.20;99.90
19968;DHT22;10145;49.152;9.282;2024-01-10T13:53:03;1.20;99.90
19968;DHT22;10145;49.152;9.282;2024-01-10T13:55:30;1.10;99.90
19968;DHT22;10145;49.152;9.282;2024-01-10T13:57:56;1.10;99.90
19968;DHT22;10145;49.152;9.282;2024-01-10T14:00:22;1.20;99.90
19968;DHT22;10145;49.152;9.282;2024-01-10T14:02:48;1.10;99.90
19968;DHT22;10145;49.152;9.282;2024-01-10T14:05:14;1.10;99.90
19968;DHT22;10145;49.152;9.282;2024-01-10T14:07:40;1.10;99.90
19968;DHT22;10145;49.152;9.282;2024-01-10T14:10:09;1.10;99.90
19968;DHT22;10145;49.152;9.282;2024-01-10T14:12:36;1.00;99.90
19968;DHT22;10145;49.152;9.282;2024-01-10T14:15:02;1.00;99.90
19968;DHT22;10145;49.152;9.282;2024-01-10T14:17:27;1.00;99.90
19968;DHT22;10145;49.152;9.282;2024-01-10T14:19:53;1.00;99.90
19968;DHT22;10145;49.152;9.282;2024-01-10T14:22:19;1.00;99.90
19968;DHT22;10145;49.152;9.282;2024-01-10T14:24:45;1.00;99.90
19968;DHT22;10145;49.152;9.282;2024-01-10T14:27:10;0.90;99.90
19968;DHT22;10145;49.152;9.282;2024-01-10T14:29:36;0.90;99.90
19968;DHT22;10145;49.152;9.282;2024-01-10T14:32:02;0.90;99.90
19968;DHT22;10145;49.152;9.282;2024-01-10T14:34:29;0.80;99.90
19968;DHT22;10145;49.152;9.282;2024-01-10T14:36:54;0.80;99.90
19968;DHT22;10145;49.152;9.282;2024-01-10T14:39:20;0.80;99.90
19968;DHT22;10145;49.152;9.282;2024-01-10T14:41:46;0.80;99.90
19968;DHT22;10145;49.152;9.282;2024-01-10T14:44:12;0.70;99.90
19968;DHT22;10145;49.152;9.282;2024-01-10T14:46:37;0.70;99.90
19968;DHT22;10145;49.152;9.282;2024-01-10T14:49:03;0.70;99.90
19968;DHT22;10145;49.152;9.282;2024-01-10T14:51:29;0.70;99.90
19968;DHT22;10145;49.152;9.282;2024-01-10T14:53:55;0.60;99.90
19968;DHT22;10145;49.152;9.282;2024-01-10T14:56:20;0.50;99.90
19968;DHT22;10145;49.152;9.282;2024-01-10T14:58:46;0.40;99.90
19968;DHT22;10145;49.152;9.282;2024-01-10T15:01:12;0.30;99.90
19968;DHT22;10145;49.152;9.282;2024-01-10T15:03:37;0.20;99.90
19968;DHT22;10145;49.152;9.282;2024-01-10T15:06:04;0.10;99.90
19968;DHT22;10145;49.152;9.282;2024-01-10T15:08:32;0.10;99.90
19968;DHT22;10145;49.152;9.282;2024-01-10T15:11:02;0.00;99.90
19968;DHT22;10145;49.152;9.282;2024-01-10T15:13:28;-0.10;99.90
19968;DHT22;10145;49.152;9.282;2024-01-10T15:15:53;-0.20;99.90
19968;DHT22;10145;49.152;9.282;2024-01-10T15:18:19;-0.30;99.90
19968;DHT22;10145;49.152;9.282;2024-01-10T15:20:45;-0.40;99.90
19968;DHT22;10145;49.152;9.282;2024-01-10T15:23:11;-0.40;99.90
19968;DHT22;10145;49.152;9.282;2024-01-10T15:25:36;-0.60;99.90
19968;DHT22;10145;49.152;9.282;2024-01-10T15:28:02;-0.60;99.90
19968;DHT22;10145;49.152;9.282;2024-01-10T15:30:29;-0.60;99.90
19968;DHT22;10145;49.152;9.282;2024-01-10T15:32:54;-0.70;99.90
19968;DHT22;10145;49.152;9.282;2024-01-10T15:35:20;-0.80;99.90
19968;DHT22;10145;49.152;9.282;2024-01-10T15:37:45;-0.90;99.90
19968;DHT22;10145;49.152;9.282;2024-01-10T15:40:11;-1.00;99.90
19968;DHT22;10145;49.152;9.282;2024-01-10T15:42:37;-1.20;99.90